Ana Sayfa
METAR-TAF:

METAR-TAF

Havaalanları :

Alice, Teksas, Amerika Birleşik Devletleri

Enlem: 27-44-28N, Boylam: 098-01-37W, yükseklik: 54 m

Güncel hava durumu gözlemi

Rapor saat 11:53 UTC de 33 dakika önce yapıldı.
Rüzgar kuzeybatıdan 10 kt
Sıcaklık 10°C
Nem 53%
Basınç 1018 hPa
Görüş mesafesi: 16.1 km
Açık gökyüzü

METAR: KALI 291153Z AUTO 32010KT 10SM CLR 10/01 A3006 RMK AO2 SLP177 T01000006 10156 20100 53006

Saat: 06:26 (12:26 UTC)

Tahmin

Rapor saat 11:23 UTC de 1 saat ve 3 dakika önce yapıldı.
Ayın 29'si saat 12 UTC'den ayın 30'si saat 12 UTC'ye kadar geçerli Tahmin
Rüzgar kuzey/kuzeybatıdan 11 kt
Görüş mesafesi: 10 km
Açık gökyüzü
Ayın 30'si saat 0000 UTC'den
Rüzgar doğu/kuzeydoğudan 5 kt
Görüş mesafesi: 10 km
25000 ft yükseklikte az bulutlu
Ayın 30'si saat 1000 UTC'den
Rüzgar kuzeydoğudan 6 kt
Görüş mesafesi: 10 km
1500 ft yükseklikte parçalı çok bulutlu

TAF: KALI 291123Z 2912/3012 33011KT P6SM SKC FM300000 07005KT P6SM FEW250 FM301000 04006KT P6SM BKN015

4.000'den fazla havaalanı için hava durumu gözlemleri ve tahminleri (METAR ve TAF raporları).

Kullanılabilir istasyonlar harita üzerinde sarı ve kırmızı noktalarla gösterilir.

İstasyonun adını görmek için fareyi noktanın üzerinde gezdirin.

Sonrasında hava gözlem ve tahminlerini görmek için tıklayın.

Haritayı değiştirmek için: yaklaştırmak için siyah artı işaretli yeşil düğmeye ve uzaklaştırmak için de eksi işaretli düğmeye hızla tıklayın; bitişik haritalar için yeşil okları kullanın.


METAR-TAF: